Latest Conditions
At L.F.Wade Int. Airport
Recorded at 9:16 am
Showers
Temp.: 
27°C/80°F
Humidity: 
81%
Wind: 
SSW 12KT
or 14mph
UV Index: 
2
Island Observations
 
Observations
Wednesday, September 20, 2017

Observations are in local time and taken at least once an hour, or upon the start and end of specified events such as showers and thunderstorms.

Time Sky / Weather Wind Speed/Gusts Temp. R.H. Pressure
     knots (mph)  °C (°F)  %  mb / "Hg
 09:16 Mostly Cloudy Showers SSW 12/0 (14/0) 27(80) 81 1017 / 30.04
 08:55 Mostly Cloudy Showers SSW 13/0 (15/0) 27(80) 82 1017 / 30.03
 08:44 Mostly Cloudy Showers SSW 14/0 (16/0) 27(80) 80 1017 / 30.03
 08:37 Mostly Cloudy Showers SW 18/0 (21/0) 27(80) 81 1017 / 30.03
 08:04 Mostly Cloudy Showers SSW 14/0 (16/0) 26(79) 83 1017 / 30.02
 07:55 Mostly Cloudy  SSW 12/0 (14/0) 26(78) 84 1017 / 30.02
 06:55 Mostly Cloudy  SSW 13/0 (15/0) 26(78) 84 1016 / 30.01
 06:09 Mostly Cloudy Showers SW 15/0 (17/0) 25(78) 87 1016 / 30.00
 05:55 Mostly Cloudy Showers SSW 13/0 (15/0) 26(78) 85 1016 / 30.00
 04:55 Mostly Cloudy Showers SSW 12/0 (14/0) 25(78) 84 1016 / 29.99
 04:26 Mostly Cloudy Showers SSW 10/0 (12/0) 25(78) 84 1016 / 30.00
 03:55 Mostly Cloudy Showers S 12/0 (14/0) 26(78) 86 1016 / 30.00
 03:38 Mostly Cloudy Showers SW 17/0 (20/0) 25(78) 85 1016 / 30.00
 03:17 Mostly Cloudy Showers SW 16/0 (18/0) 26(78) 86 1016 / 30.00
 02:55 Mostly Cloudy Showers SSW 9/0 (10/0) 25(77) 88 1016 / 30.01
 02:28 Mostly Cloudy Showers SSW 14/0 (16/0) 25(77) 86 1017 / 30.02
 01:55 Mostly Cloudy Showers S 14/0 (16/0) 26(78) 86 1017 / 30.03
 01:33 Mostly Cloudy Showers SSW 17/0 (20/0) 26(78) 84 1017 / 30.03
 00:55 Mostly Cloudy  S 9/0 (10/0) 26(78) 87 1017 / 30.03
 23:55 Mostly Cloudy  S 11/0 (13/0) 26(79) 84 1017 / 30.03
 22:55 Mostly Cloudy  SSW 10/0 (12/0) 26(79) 81 1017 / 30.03
 21:55 Mostly Cloudy Showers S 10/0 (12/0) 26(79) 83 1017 / 30.03
 20:55 Mostly Cloudy Showers S 10/0 (12/0) 26(78) 81 1017 / 30.02
 20:28 Mostly Cloudy Showers SSW 16/0 (18/0) 26(78) 84 1017 / 30.02
 20:01 Mostly Cloudy Showers SW 17/0 (20/0) 26(80) 84 1017 / 30.02
 19:55 Mostly Cloudy Showers SSW 11/0 (13/0) 27(80) 83 1016 / 30.01
 18:55 Mostly Cloudy  S 10/0 (12/0) 27(80) 83 1016 / 30.00
 17:55 Mostly Cloudy  S 12/0 (14/0) 27(80) 83 1016 / 29.99
 16:55 Mostly Cloudy  S 11/0 (13/0) 26(79) 85 1015 / 29.98
 15:55 Mostly Cloudy Showers S 10/0 (12/0) 25(77) 90 1016 / 29.99
 15:39 Mostly Cloudy Showers S 14/0 (16/0) 24(75) 90 1016 / 29.99
 15:27 Mostly Cloudy Showers S 16/0 (18/0) 25(76) 89 1016 / 29.99
 15:11 Mostly Cloudy Showers SSW 21/0 (24/0) 26(79) 83 1016 / 29.99
 14:55 Mostly Cloudy Showers S 15/0 (17/0) 27(81) 80 1016 / 30.00
 14:32 Mostly Cloudy Thunderstorm SSE 13/0 (15/0) 27(80) 82 1016 / 30.00
 14:28 Mostly Cloudy Showers S 15/0 (17/0) 27(81) 83 1016 / 30.00
 14:20 Mostly Cloudy Showers S 18/0 (21/0) 27(81) 84 1016 / 30.00
 13:55 Mostly Cloudy Showers S 11/0 (13/0) 28(82) 80 1016 / 30.00
 13:38 Mostly Cloudy  S 11/0 (13/0) 28(83) 78 1016 / 30.00
 12:55 Mostly Cloudy  SSE 11/0 (13/0) 28(82) 82 1016 / 30.01
 11:55 Mostly Cloudy  SSW 15/0 (17/0) 26(80) 85 1017 / 30.02
 11:26 Mostly Cloudy Showers SSW 14/0 (16/0) 25(77) 87 1016 / 30.01
 10:55 Mostly Cloudy Showers SW 20/0 (23/0) 25(77) 88 1016 / 30.00
 09:55 Mostly Cloudy Showers WSW 14/0 (16/0) 24(75) 90 1016 / 29.99
 09:15 Mostly Cloudy Showers SW 13/0 (15/0) 24(75) 90 1015 / 29.98
 08:55 Mostly Cloudy Showers SW 13/0 (15/0) 24(75) 91 1015 / 29.98
 08:41 Mostly Cloudy Showers SW 13/0 (15/0) 24(74) 91 1015 / 29.98
 08:18 Mostly Cloudy Thunderstorm SW 18/30 (21/35) 23(74) 90 1015 / 29.98
 08:09 Overcast Showers SW 17/30 (20/35) 24(76) 90 1015 / 29.98
 07:55 Mostly Cloudy Showers S 13/0 (15/0) 25(77) 89 1015 / 29.96
 07:42 Mostly Cloudy Showers S 15/26 (17/30) 25(77) 89 1014 / 29.95
 07:38 Mostly Cloudy Showers S 15/26 (17/30) 25(77) 88 1014 / 29.95
 07:32 Mostly Cloudy Showers S 14/0 (16/0) 25(78) 87 1014 / 29.95
 07:17 Mostly Cloudy Showers S 14/0 (16/0) 25(77) 88 1014 / 29.94
 06:55 Overcast Thunderstorm SSW 11/0 (13/0) 24(75) 89 1014 / 29.94
 05:55 Mostly Cloudy Showers S 14/0 (16/0) 25(77) 87 1014 / 29.93
 05:45 Mostly Cloudy Showers S 14/0 (16/0) 25(77) 87 1014 / 29.93
 04:55 Overcast Thunderstorm S 14/0 (16/0) 23(74) 91 1013 / 29.92
 04:35 Overcast Thunderstorm S 13/0 (15/0) 23(74) 92 1013 / 29.91
 04:25 Overcast Thunderstorm S 14/0 (16/0) 23(74) 92 1013 / 29.92
 04:09 Overcast Thunderstorm SSW 15/0 (17/0) 23(74) 90 1013 / 29.92
 03:55 Overcast Thunderstorm SSE 18/0 (21/0) 25(77) 88 1013 / 29.90
 03:39 Overcast Thunderstorm SSE 16/0 (18/0) 25(77) 89 1013 / 29.90
 03:21 Overcast Showers S 15/0 (17/0) 25(77) 91 1013 / 29.91
 02:55 Overcast Thunderstorm S 18/31 (21/36) 25(77) 91 1013 / 29.92
 02:43 Overcast Thunderstorm S 17/31 (20/36) 25(77) 91 1013 / 29.92
 02:22 Overcast Thunderstorm S 19/0 (22/0) 24(76) 91 1014 / 29.93
 02:16 Overcast Thunderstorm S 19/29 (22/33) 25(76) 86 1014 / 29.93
 02:12 Overcast Showers SSE 18/29 (21/33) 26(80) 85 1014 / 29.93
 02:05 Overcast Showers S 16/0 (18/0) 26(79) 86 1013 / 29.92
 01:55 Overcast Showers SSE 17/0 (20/0) 26(79) 86 1013 / 29.92
 01:44 Overcast Showers SSE 17/0 (20/0) 26(80) 87 1013 / 29.92
 01:37 Overcast Showers SSE 19/0 (22/0) 26(80) 85 1014 / 29.93
 01:14 Overcast Showers SSE 17/0 (20/0) 27(81) 82 1014 / 29.93
 00:55 Overcast Showers SSE 19/0 (22/0) 27(81) 81 1014 / 29.93
 00:44 Overcast Showers SSE 20/0 (23/0) 27(81) 82 1014 / 29.93
 23:55 Mostly Cloudy  SSE 20/0 (23/0) 27(81) 80 1013 / 29.92
 22:55 Overcast Showers SSE 22/0 (25/0) 27(81) 83 1014 / 29.93
 21:55 Overcast Showers SSE 23/0 (26/0) 27(81) 82 1013 / 29.92
 20:55 Overcast  SSE 22/0 (25/0) 27(81) 83 1013 / 29.91
 19:55 Overcast  SSE 22/0 (25/0) 27(81) 81 1013 / 29.90
 18:55 Overcast Showers SSE 22/0 (25/0) 27(81) 81 1013 / 29.91
 18:42 Overcast  SE 21/0 (24/0) 27(81) 82 1013 / 29.91
 18:21 Overcast  SSE 21/0 (24/0) 27(81) 81 1013 / 29.91
 17:55 Overcast  SE 20/0 (23/0) 27(80) 83 1013 / 29.90
 16:55 Overcast Showers SSE 19/0 (22/0) 27(80) 82 1013 / 29.91
 16:23 Overcast Showers SE 19/0 (22/0) 27(80) 83 1013 / 29.91
 15:55 Overcast Showers SE 19/0 (22/0) 26(80) 84 1014 / 29.93
 14:55 Overcast Showers SE 21/0 (24/0) 27(81) 81 1014 / 29.93
 13:55 Overcast  SE 20/0 (23/0) 26(79) 84 1014 / 29.94
 13:27 Overcast Showers SE 22/0 (25/0) 25(77) 87 1014 / 29.94
 13:10 Overcast Showers SSE 24/0 (28/0) 26(78) 85 1015 / 29.96
 12:55 Overcast Showers SSE 22/0 (25/0) 26(78) 85 1015 / 29.96
 12:45 Overcast Showers SSE 21/0 (24/0) 26(78) 86 1015 / 29.96
 12:33 Overcast Showers SSE 14/0 (16/0) 24(76) 90 1015 / 29.97
 12:22 Overcast Showers SE 21/0 (24/0) 25(76) 89 1015 / 29.98
 12:09 Overcast Showers SE 20/30 (23/35) 25(77) 86 1015 / 29.98
 11:55 Overcast Showers SE 17/0 (20/0) 25(76) 89 1015 / 29.98
 11:41 Overcast Showers SE 20/32 (23/37) 24(76) 90 1015 / 29.98
 11:31 Overcast Showers SE 21/0 (24/0) 25(78) 87 1016 / 29.99
Observations from our AWOS sites are available here (password and username are both 'guest').